Mn Pelican — FMLR — position and weather

sailwx.info

Track history (hours):
 
Tides and Currents Weather Stations Pressure Air Temp Water Temp Dewpoint Dewpoint Depression Visibility Wind Speed Wind Dir Waves Ship Positions

Mn Pelican

Last reported at 2017-Jun-19 22:08 UTC. Time now 2017-Jun-22 14:15 UTC.
Position N 44°50' W 003°53'.

Length 155 m; draft 5.9 m.

Type: Ship. MMSI: 228315700.

Date/timePositionNaut miles runAvg speedWind from/ knotsBaromVisibWave heightAir tempDewpointWater temp
2017-Jun-19 22:08N 44°50' W 003°53'214.1
2017-Jun-19 21:58N 44°52' W 003°54'1414.4
2017-Jun-19 21:01N 45°05' W 004°01'114.3
2017-Jun-19 20:58N 45°05' W 004°02'20314.4
2017-Jun-19 06:53N 48°14' W 005°50'3713.4
2017-Jun-19 04:09N 48°50' W 005°47'2514.6
2017-Jun-19 02:25N 49°04' W 005°15'2214.5
2017-Jun-19 00:56N 49°16' W 004°48'2914.1
2017-Jun-18 22:53N 49°35' W 004°14'813.9
2017-Jun-18 22:21N 49°40' W 004°05'514.1
2017-Jun-18 22:00N 49°43' W 003°59'714.2
2017-Jun-18 21:31N 49°47' W 003°51'1414.1
2017-Jun-18 20:31N 49°54' W 003°32'015.2
2017-Jun-18 20:30N 49°54' W 003°32'714.7
2017-Jun-18 20:00N 49°58' W 003°22'714.6
2017-Jun-18 19:30N 50°02' W 003°13'714.6
2017-Jun-18 19:00N 50°06' W 003°03'714.5
2017-Jun-18 18:30N 50°10' W 002°53'714.5
2017-Jun-18 18:00N 50°13' W 002°43'714.5
2017-Jun-18 17:30N 50°16' W 002°33'714.4
2017-Jun-18 17:00N 50°20' W 002°23'714.3
2017-Jun-18 16:30N 50°23' W 002°14'714.9
2017-Jun-18 16:00N 50°27' W 002°03'714.2
2017-Jun-18 15:30N 50°32' W 001°56'713.0
2017-Jun-18 14:59N 50°39' W 001°55'4 8.7
2017-Jun-18 14:29N 50°42' W 001°59'0 0.1
2017-Jun-18 11:05N 50°42' W 001°59'0 0.0
2017-Jun-18 10:59N 50°42' W 001°59'0 0.0
2017-Jun-18 10:17N 50°42' W 001°59'0 0.0
2017-Jun-18 09:04N 50°42' W 001°59'0 0.0
2017-Jun-18 08:59N 50°42' W 001°59'0 0.2
2017-Jun-18 08:30N 50°42' W 001°60'3 7.0
2017-Jun-18 08:00N 50°40' W 001°56'4 8.5
2017-Jun-18 07:29N 50°36' W 001°54'22 9.0
2017-Jun-18 05:04N 50°14' W 001°59'1312.9
2017-Jun-18 04:05N 50°02' W 002°07'114.0
2017-Jun-18 04:00N 50°02' W 002°08'714.4
2017-Jun-18 03:30N 49°58' W 002°18'3114.6
2017-Jun-18 01:24N 49°47' W 003°02'614.7
2017-Jun-18 00:59N 49°44' W 003°11'714.5
2017-Jun-18 00:30N 49°40' W 003°20'814.4
2017-Jun-17 23:56N 49°36' W 003°31'5214.3
2017-Jun-17 20:17N 49°10' W 004°41'414.2
2017-Jun-17 20:00N 49°08' W 004°46'714.0
2017-Jun-17 19:30N 49°05' W 004°56'714.0
2017-Jun-17 19:00N 49°02' W 005°05'713.8
2017-Jun-17 18:30N 48°58' W 005°14'713.6
2017-Jun-17 18:00N 48°54' W 005°23'713.4
2017-Jun-17 17:30N 48°51' W 005°31'713.0
2017-Jun-17 16:59N 48°47' W 005°39'613.5
2017-Jun-17 16:30N 48°41' W 005°43'713.5
2017-Jun-17 16:00N 48°34' W 005°47'613.0
2017-Jun-17 15:30N 48°28' W 005°50'713.4
2017-Jun-17 15:00N 48°22' W 005°48'4713.4
2017-Jun-17 11:28N 47°36' W 005°29'813.5
2017-Jun-17 10:54N 47°29' W 005°25'713.1
2017-Jun-17 10:21N 47°22' W 005°21'613.3
2017-Jun-17 09:56N 47°17' W 005°18'6013.6
2017-Jun-17 05:31N 46°22' W 004°45'713.7
2017-Jun-17 05:01N 46°15' W 004°42'4313.9
2017-Jun-17 01:58N 45°36' W 004°19'614.1
2017-Jun-17 01:30N 45°30' W 004°15'713.7
2017-Jun-17 01:00N 45°23' W 004°12'713.7
2017-Jun-17 00:30N 45°17' W 004°08'713.9
2017-Jun-16 23:58N 45°10' W 004°04'713.8
2017-Jun-16 23:26N 45°03' W 004°01'614.2
2017-Jun-16 23:00N 44°57' W 003°58'3313.7
2017-Jun-16 20:37N 44°27' W 003°41'113.7
2017-Jun-16 20:31N 44°25' W 003°40'713.7
2017-Jun-16 20:00N 44°19' W 003°36'2913.6
2017-Jun-16 17:53N 43°53' W 003°20'106 2.6
2017-Jun-15 01:27N 45°30' W 004°16'5415.3
2017-Jun-14 21:56N 46°20' W 004°46'4015.5
2017-Jun-14 19:20N 46°58' W 005°06'515.5
2017-Jun-14 19:00N 47°03' W 005°09'815.8
2017-Jun-14 18:30N 47°10' W 005°13'815.2
2017-Jun-14 18:00N 47°17' W 005°18'2815.0
2017-Jun-14 16:09N 47°43' W 005°32'4313.4
2017-Jun-14 12:56N 48°23' W 005°57'7914.0
2017-Jun-14 07:19N 49°22' W 004°37'1314.3
2017-Jun-14 06:24N 49°30' W 004°21'614.5
2017-Jun-14 05:59N 49°33' W 004°14'714.6
2017-Jun-14 05:30N 49°38' W 004°05'714.8
2017-Jun-14 05:00N 49°42' W 003°56'714.7
2017-Jun-14 04:30N 49°47' W 003°47'815.2
2017-Jun-14 04:00N 49°51' W 003°38'815.6
2017-Jun-14 03:30N 49°56' W 003°28'815.8
2017-Jun-14 03:00N 50°01' W 003°18'815.8
2017-Jun-14 02:30N 50°05' W 003°07'815.6
2017-Jun-14 02:00N 50°08' W 002°57'815.7
2017-Jun-14 01:30N 50°12' W 002°46'816.7
2017-Jun-14 01:00N 50°16' W 002°34'816.1
2017-Jun-14 00:30N 50°19' W 002°23'815.4
2017-Jun-14 00:00N 50°23' W 002°12'714.9
2017-Jun-13 23:30N 50°27' W 002°03'714.4
2017-Jun-13 23:00N 50°32' W 001°55'713.3
2017-Jun-13 22:30N 50°39' W 001°55'4 8.3
2017-Jun-13 22:00N 50°42' W 001°59'0 0.3
2017-Jun-13 21:28N 50°42' W 001°59'0 0.0
2017-Jun-13 20:57N 50°42' W 001°59'0 0.0
2017-Jun-13 20:27N 50°42' W 001°59'0 0.0
2017-Jun-13 19:57N 50°42' W 001°59'0 0.0
2017-Jun-13 19:27N 50°42' W 001°59'0 0.0
2017-Jun-13 19:00N 50°42' W 001°59'1 2.1
2017-Jun-13 18:29N 50°42' W 001°58'4 9.1
2017-Jun-13 18:01N 50°38' W 001°54'816.8
2017-Jun-13 17:30N 50°30' W 001°58'1317.5
2017-Jun-13 16:45N 50°18' W 002°07'517.3
2017-Jun-13 16:28N 50°14' W 002°11'1417.0
2017-Jun-13 15:38N 50°01' W 002°20'1515.8
2017-Jun-13 14:40N 49°53' W 002°40'317.1
2017-Jun-13 14:29N 49°52' W 002°45'1717.4
2017-Jun-13 13:31N 49°45' W 003°09'917.8
2017-Jun-13 13:00N 49°40' W 003°21'1318.0
2017-Jun-13 12:18N 49°34' W 003°38'618.1
2017-Jun-13 11:59N 49°31' W 003°45'918.1
2017-Jun-13 11:29N 49°27' W 003°57'1318.0
2017-Jun-13 10:45N 49°20' W 004°15'2618.3
2017-Jun-13 09:21N 49°07' W 004°49'618.6
2017-Jun-13 09:01N 49°04' W 004°57'1518.8
2017-Jun-13 08:12N 48°57' W 005°18'418.9
2017-Jun-13 08:00N 48°55' W 005°23'1219.3
2017-Jun-13 07:21N 48°48' W 005°39'4718.8
2017-Jun-13 04:52N 48°02' W 005°41'819.7
2017-Jun-13 04:27N 47°54' W 005°39'819.2
2017-Jun-13 04:00N 47°46' W 005°34'1019.2
2017-Jun-13 03:29N 47°36' W 005°28'1019.3
2017-Jun-13 02:58N 47°27' W 005°23'919.2
2017-Jun-13 02:30N 47°19' W 005°18'919.1
2017-Jun-13 02:00N 47°10' W 005°13'1019.0
2017-Jun-13 01:30N 47°01' W 005°08'1419.1
2017-Jun-13 00:47N 46°48' W 005°01'518.6
2017-Jun-13 00:30N 46°43' W 004°58'918.6
2017-Jun-13 00:00N 46°35' W 004°53'918.7
2017-Jun-12 23:30N 46°26' W 004°48'41 1.2
2017-Jun-11 14:02N 47°04' W 005°09'1316.5
2017-Jun-11 13:14N 47°17' W 005°16'416.4
2017-Jun-11 12:58N 47°21' W 005°19'10813.6
2017-Jun-11 05:02N 49°08' W 005°06'114.7
2017-Jun-11 04:59N 49°09' W 005°05'714.7
2017-Jun-11 04:30N 49°12' W 004°55'1014.0
2017-Jun-11 03:47N 49°19' W 004°43'814.3
2017-Jun-11 03:14N 49°23' W 004°33'414.4
2017-Jun-11 02:59N 49°26' W 004°29'2115.2
2017-Jun-11 01:35N 49°39' W 004°03'616.0
2017-Jun-11 01:12N 49°42' W 003°56'316.2
2017-Jun-11 01:01N 49°44' W 003°52'1316.2
2017-Jun-11 00:13N 49°52' W 003°36'416.4
2017-Jun-10 23:59N 49°54' W 003°32'816.9
2017-Jun-10 23:31N 49°59' W 003°21'917.0
2017-Jun-10 23:00N 50°03' W 003°10'816.8
2017-Jun-10 22:30N 50°08' W 002°59'816.0
2017-Jun-10 22:00N 50°12' W 002°48'715.3
2017-Jun-10 21:31N 50°15' W 002°37'3114.7
2017-Jun-10 19:24N 50°32' W 001°56'615.1
2017-Jun-10 18:59N 50°38' W 001°54'5 9.5
2017-Jun-10 18:30N 50°42' W 001°57'6 0.8
2017-Jun-10 11:32N 50°37' W 001°54'113.7
2017-Jun-10 11:26N 50°35' W 001°54'1913.6
2017-Jun-10 10:03N 50°17' W 001°58'513.9
2017-Jun-10 09:42N 50°12' W 002°00'416.4
2017-Jun-10 09:26N 50°08' W 002°01'715.4
2017-Jun-10 08:58N 50°01' W 002°04'4417.2
2017-Jun-10 06:25N 49°45' W 003°07'716.8
2017-Jun-10 06:00N 49°41' W 003°16'1516.9
2017-Jun-10 05:08N 49°34' W 003°36'316.8
2017-Jun-10 04:59N 49°33' W 003°39'816.8
2017-Jun-10 04:30N 49°28' W 003°50'916.9
2017-Jun-10 03:59N 49°24' W 004°02'1016.8
2017-Jun-10 03:25N 49°20' W 004°14'716.7
2017-Jun-10 03:00N 49°16' W 004°24'916.7
2017-Jun-10 02:27N 49°12' W 004°36'817.0
2017-Jun-10 02:00N 49°08' W 004°46'917.5
2017-Jun-10 01:30N 49°04' W 004°58'817.1
2017-Jun-10 01:00N 48°60' W 005°09'916.9
2017-Jun-10 00:30N 48°55' W 005°21'816.6
2017-Jun-10 00:00N 48°51' W 005°31'  
Track history (hours):
 
Tides and Currents Weather Stations Pressure Air Temp Water Temp Dewpoint Dewpoint Depression Visibility Wind Speed Wind Dir Waves Ship Positions

Mn Pelican

Last reported at 2017-Jun-19 22:08 UTC. Time now 2017-Jun-22 14:15 UTC.
Position N 44°50' W 003°53'.

Length 155 m; draft 5.9 m.

Type: Ship. MMSI: 228315700.

Date/timePositionNaut miles runAvg speedWind from/ knotsBaromVisibWave heightAir tempDewpointWater temp
2017-Jun-19 22:08N 44°50' W 003°53'214.1
2017-Jun-19 21:58N 44°52' W 003°54'1414.4
2017-Jun-19 21:01N 45°05' W 004°01'114.3
2017-Jun-19 20:58N 45°05' W 004°02'20314.4
2017-Jun-19 06:53N 48°14' W 005°50'3713.4
2017-Jun-19 04:09N 48°50' W 005°47'2514.6
2017-Jun-19 02:25N 49°04' W 005°15'2214.5
2017-Jun-19 00:56N 49°16' W 004°48'2914.1
2017-Jun-18 22:53N 49°35' W 004°14'813.9
2017-Jun-18 22:21N 49°40' W 004°05'514.1
2017-Jun-18 22:00N 49°43' W 003°59'714.2
2017-Jun-18 21:31N 49°47' W 003°51'1414.1
2017-Jun-18 20:31N 49°54' W 003°32'015.2
2017-Jun-18 20:30N 49°54' W 003°32'714.7
2017-Jun-18 20:00N 49°58' W 003°22'714.6
2017-Jun-18 19:30N 50°02' W 003°13'714.6
2017-Jun-18 19:00N 50°06' W 003°03'714.5
2017-Jun-18 18:30N 50°10' W 002°53'714.5
2017-Jun-18 18:00N 50°13' W 002°43'714.5
2017-Jun-18 17:30N 50°16' W 002°33'714.4
2017-Jun-18 17:00N 50°20' W 002°23'714.3
2017-Jun-18 16:30N 50°23' W 002°14'714.9
2017-Jun-18 16:00N 50°27' W 002°03'714.2
2017-Jun-18 15:30N 50°32' W 001°56'713.0
2017-Jun-18 14:59N 50°39' W 001°55'4 8.7
2017-Jun-18 14:29N 50°42' W 001°59'0 0.1
2017-Jun-18 11:05N 50°42' W 001°59'0 0.0
2017-Jun-18 10:59N 50°42' W 001°59'0 0.0
2017-Jun-18 10:17N 50°42' W 001°59'0 0.0
2017-Jun-18 09:04N 50°42' W 001°59'0 0.0
2017-Jun-18 08:59N 50°42' W 001°59'0 0.2
2017-Jun-18 08:30N 50°42' W 001°60'3 7.0
2017-Jun-18 08:00N 50°40' W 001°56'4 8.5
2017-Jun-18 07:29N 50°36' W 001°54'22 9.0
2017-Jun-18 05:04N 50°14' W 001°59'1312.9
2017-Jun-18 04:05N 50°02' W 002°07'114.0
2017-Jun-18 04:00N 50°02' W 002°08'714.4
2017-Jun-18 03:30N 49°58' W 002°18'3114.6
2017-Jun-18 01:24N 49°47' W 003°02'614.7
2017-Jun-18 00:59N 49°44' W 003°11'714.5
2017-Jun-18 00:30N 49°40' W 003°20'814.4
2017-Jun-17 23:56N 49°36' W 003°31'5214.3
2017-Jun-17 20:17N 49°10' W 004°41'414.2
2017-Jun-17 20:00N 49°08' W 004°46'714.0
2017-Jun-17 19:30N 49°05' W 004°56'714.0
2017-Jun-17 19:00N 49°02' W 005°05'713.8
2017-Jun-17 18:30N 48°58' W 005°14'713.6
2017-Jun-17 18:00N 48°54' W 005°23'713.4
2017-Jun-17 17:30N 48°51' W 005°31'713.0
2017-Jun-17 16:59N 48°47' W 005°39'613.5
2017-Jun-17 16:30N 48°41' W 005°43'713.5
2017-Jun-17 16:00N 48°34' W 005°47'613.0
2017-Jun-17 15:30N 48°28' W 005°50'713.4
2017-Jun-17 15:00N 48°22' W 005°48'4713.4
2017-Jun-17 11:28N 47°36' W 005°29'813.5
2017-Jun-17 10:54N 47°29' W 005°25'713.1
2017-Jun-17 10:21N 47°22' W 005°21'613.3
2017-Jun-17 09:56N 47°17' W 005°18'6013.6
2017-Jun-17 05:31N 46°22' W 004°45'713.7
2017-Jun-17 05:01N 46°15' W 004°42'4313.9
2017-Jun-17 01:58N 45°36' W 004°19'614.1
2017-Jun-17 01:30N 45°30' W 004°15'713.7
2017-Jun-17 01:00N 45°23' W 004°12'713.7
2017-Jun-17 00:30N 45°17' W 004°08'713.9
2017-Jun-16 23:58N 45°10' W 004°04'713.8
2017-Jun-16 23:26N 45°03' W 004°01'614.2
2017-Jun-16 23:00N 44°57' W 003°58'3313.7
2017-Jun-16 20:37N 44°27' W 003°41'113.7
2017-Jun-16 20:31N 44°25' W 003°40'713.7
2017-Jun-16 20:00N 44°19' W 003°36'2913.6
2017-Jun-16 17:53N 43°53' W 003°20'106 2.6
2017-Jun-15 01:27N 45°30' W 004°16'5415.3
2017-Jun-14 21:56N 46°20' W 004°46'4015.5
2017-Jun-14 19:20N 46°58' W 005°06'515.5
2017-Jun-14 19:00N 47°03' W 005°09'815.8
2017-Jun-14 18:30N 47°10' W 005°13'815.2
2017-Jun-14 18:00N 47°17' W 005°18'2815.0
2017-Jun-14 16:09N 47°43' W 005°32'4313.4
2017-Jun-14 12:56N 48°23' W 005°57'7914.0
2017-Jun-14 07:19N 49°22' W 004°37'1314.3
2017-Jun-14 06:24N 49°30' W 004°21'614.5
2017-Jun-14 05:59N 49°33' W 004°14'714.6
2017-Jun-14 05:30N 49°38' W 004°05'714.8
2017-Jun-14 05:00N 49°42' W 003°56'714.7
2017-Jun-14 04:30N 49°47' W 003°47'815.2
2017-Jun-14 04:00N 49°51' W 003°38'815.6
2017-Jun-14 03:30N 49°56' W 003°28'815.8
2017-Jun-14 03:00N 50°01' W 003°18'815.8
2017-Jun-14 02:30N 50°05' W 003°07'815.6
2017-Jun-14 02:00N 50°08' W 002°57'815.7
2017-Jun-14 01:30N 50°12' W 002°46'816.7
2017-Jun-14 01:00N 50°16' W 002°34'816.1
2017-Jun-14 00:30N 50°19' W 002°23'815.4
2017-Jun-14 00:00N 50°23' W 002°12'714.9
2017-Jun-13 23:30N 50°27' W 002°03'714.4
2017-Jun-13 23:00N 50°32' W 001°55'713.3
2017-Jun-13 22:30N 50°39' W 001°55'4 8.3
2017-Jun-13 22:00N 50°42' W 001°59'0 0.3
2017-Jun-13 21:28N 50°42' W 001°59'0 0.0
2017-Jun-13 20:57N 50°42' W 001°59'0 0.0
2017-Jun-13 20:27N 50°42' W 001°59'0 0.0
2017-Jun-13 19:57N 50°42' W 001°59'0 0.0
2017-Jun-13 19:27N 50°42' W 001°59'0 0.0
2017-Jun-13 19:00N 50°42' W 001°59'1 2.1
2017-Jun-13 18:29N 50°42' W 001°58'4 9.1
2017-Jun-13 18:01N 50°38' W 001°54'816.8
2017-Jun-13 17:30N 50°30' W 001°58'1317.5
2017-Jun-13 16:45N 50°18' W 002°07'517.3
2017-Jun-13 16:28N 50°14' W 002°11'1417.0
2017-Jun-13 15:38N 50°01' W 002°20'1515.8
2017-Jun-13 14:40N 49°53' W 002°40'317.1
2017-Jun-13 14:29N 49°52' W 002°45'1717.4
2017-Jun-13 13:31N 49°45' W 003°09'917.8
2017-Jun-13 13:00N 49°40' W 003°21'1318.0
2017-Jun-13 12:18N 49°34' W 003°38'618.1
2017-Jun-13 11:59N 49°31' W 003°45'918.1
2017-Jun-13 11:29N 49°27' W 003°57'1318.0
2017-Jun-13 10:45N 49°20' W 004°15'2618.3
2017-Jun-13 09:21N 49°07' W 004°49'618.6
2017-Jun-13 09:01N 49°04' W 004°57'1518.8
2017-Jun-13 08:12N 48°57' W 005°18'418.9
2017-Jun-13 08:00N 48°55' W 005°23'1219.3
2017-Jun-13 07:21N 48°48' W 005°39'4718.8
2017-Jun-13 04:52N 48°02' W 005°41'819.7
2017-Jun-13 04:27N 47°54' W 005°39'819.2
2017-Jun-13 04:00N 47°46' W 005°34'1019.2
2017-Jun-13 03:29N 47°36' W 005°28'1019.3
2017-Jun-13 02:58N 47°27' W 005°23'919.2
2017-Jun-13 02:30N 47°19' W 005°18'919.1
2017-Jun-13 02:00N 47°10' W 005°13'1019.0
2017-Jun-13 01:30N 47°01' W 005°08'1419.1
2017-Jun-13 00:47N 46°48' W 005°01'518.6
2017-Jun-13 00:30N 46°43' W 004°58'918.6
2017-Jun-13 00:00N 46°35' W 004°53'918.7
2017-Jun-12 23:30N 46°26' W 004°48'41 1.2
2017-Jun-11 14:02N 47°04' W 005°09'1316.5
2017-Jun-11 13:14N 47°17' W 005°16'416.4
2017-Jun-11 12:58N 47°21' W 005°19'10813.6
2017-Jun-11 05:02N 49°08' W 005°06'114.7
2017-Jun-11 04:59N 49°09' W 005°05'714.7
2017-Jun-11 04:30N 49°12' W 004°55'1014.0
2017-Jun-11 03:47N 49°19' W 004°43'814.3
2017-Jun-11 03:14N 49°23' W 004°33'414.4
2017-Jun-11 02:59N 49°26' W 004°29'2115.2
2017-Jun-11 01:35N 49°39' W 004°03'616.0
2017-Jun-11 01:12N 49°42' W 003°56'316.2
2017-Jun-11 01:01N 49°44' W 003°52'1316.2
2017-Jun-11 00:13N 49°52' W 003°36'416.4
2017-Jun-10 23:59N 49°54' W 003°32'816.9
2017-Jun-10 23:31N 49°59' W 003°21'917.0
2017-Jun-10 23:00N 50°03' W 003°10'816.8
2017-Jun-10 22:30N 50°08' W 002°59'816.0
2017-Jun-10 22:00N 50°12' W 002°48'715.3
2017-Jun-10 21:31N 50°15' W 002°37'3114.7
2017-Jun-10 19:24N 50°32' W 001°56'615.1
2017-Jun-10 18:59N 50°38' W 001°54'5 9.5
2017-Jun-10 18:30N 50°42' W 001°57'6 0.8
2017-Jun-10 11:32N 50°37' W 001°54'113.7
2017-Jun-10 11:26N 50°35' W 001°54'1913.6
2017-Jun-10 10:03N 50°17' W 001°58'513.9
2017-Jun-10 09:42N 50°12' W 002°00'416.4
2017-Jun-10 09:26N 50°08' W 002°01'715.4
2017-Jun-10 08:58N 50°01' W 002°04'4417.2
2017-Jun-10 06:25N 49°45' W 003°07'716.8
2017-Jun-10 06:00N 49°41' W 003°16'1516.9
2017-Jun-10 05:08N 49°34' W 003°36'316.8
2017-Jun-10 04:59N 49°33' W 003°39'816.8
2017-Jun-10 04:30N 49°28' W 003°50'916.9
2017-Jun-10 03:59N 49°24' W 004°02'1016.8
2017-Jun-10 03:25N 49°20' W 004°14'716.7
2017-Jun-10 03:00N 49°16' W 004°24'916.7
2017-Jun-10 02:27N 49°12' W 004°36'817.0
2017-Jun-10 02:00N 49°08' W 004°46'917.5
2017-Jun-10 01:30N 49°04' W 004°58'817.1
2017-Jun-10 01:00N 48°60' W 005°09'916.9
2017-Jun-10 00:30N 48°55' W 005°21'816.6
2017-Jun-10 00:00N 48°51' W 005°31'  

Dump ship's entire track history